Muzaffarabad Weather



Muzaffarabad's Current Weather

Temprature 25.37o broken clouds

broken clouds

Rain: 0 %

Min Temprature25.37o
Max Temprature25.37o
Humidity61
Wind Speed0.56 m/h
Sun Rise05:09:45
Sun Set18:55:29
Current Time: 08-May-2021 15:30:52
Lat/Lon: 34.37, 73.4711




Muzaffarabad's Geo Location



Muzaffarabad's Weather Forecast

Time Overall Temp Min Temp Max Temp Humidity Wind Speed Rain
08-May-2021 (Sat)
17:00:00 light rain 25.500 22.440 25.500 58 1.7 m/h 246 %
20:00:00 light rain 22.380 20.060 22.380 66 2.23 m/h 74 %
23:00:00 overcast clouds 19.110 19.110 19.110 71 2.57 m/h 0 %
09-May-2021 (Sun)
02:00:00 overcast clouds 18.470 18.470 18.470 68 2.68 m/h 0 %
05:00:00 broken clouds 17.970 17.970 17.970 66 2.7 m/h 0 %
08:00:00 scattered clouds 25.010 25.010 25.010 49 1.21 m/h 0 %
11:00:00 scattered clouds 28.990 28.990 28.990 41 1.94 m/h 0 %
14:00:00 light rain 29.700 29.700 29.700 43 1.82 m/h 21 %
17:00:00 broken clouds 29.190 29.190 29.190 42 1.07 m/h 0 %
20:00:00 scattered clouds 22.730 22.730 22.730 64 2.11 m/h 0 %
23:00:00 light rain 20.750 20.750 20.750 68 2.59 m/h 32 %
10-May-2021 (Mon)
02:00:00 light rain 20.140 20.140 20.140 67 2.62 m/h 14 %
05:00:00 overcast clouds 19.390 19.390 19.390 66 2.56 m/h 0 %
08:00:00 light rain 25.520 25.520 25.520 52 0.93 m/h 21 %
11:00:00 light rain 29.920 29.920 29.920 42 1.83 m/h 11 %
14:00:00 light rain 31.130 31.130 31.130 38 2.18 m/h 24 %
17:00:00 light rain 30.000 30.000 30.000 42 0.33 m/h 20 %
20:00:00 light rain 22.310 22.310 22.310 70 2.84 m/h 60 %
23:00:00 light rain 20.880 20.880 20.880 70 2.83 m/h 65 %
11-May-2021 (Tue)
02:00:00 light rain 19.970 19.970 19.970 69 2.9 m/h 18 %
05:00:00 overcast clouds 19.470 19.470 19.470 67 2.96 m/h 0 %
08:00:00 light rain 25.880 25.880 25.880 50 1.33 m/h 21 %
11:00:00 light rain 30.640 30.640 30.640 38 1.68 m/h 10 %
14:00:00 light rain 28.810 28.810 28.810 48 1.71 m/h 23 %
17:00:00 moderate rain 20.790 20.790 20.790 77 3.69 m/h 348 %
20:00:00 light rain 19.270 19.270 19.270 76 3.76 m/h 88 %
23:00:00 light rain 18.590 18.590 18.590 82 2.66 m/h 182 %
12-May-2021 (Wed)
02:00:00 light rain 18.640 18.640 18.640 83 2.5 m/h 182 %
05:00:00 light rain 18.540 18.540 18.540 83 2.76 m/h 176 %
08:00:00 light rain 21.980 21.980 21.980 70 1.91 m/h 173 %
11:00:00 light rain 25.890 25.890 25.890 54 1.33 m/h 116 %
14:00:00 moderate rain 21.090 21.090 21.090 82 2.48 m/h 622 %
17:00:00 moderate rain 19.130 19.130 19.130 85 2.47 m/h 527 %
20:00:00 light rain 17.080 17.080 17.080 84 2.31 m/h 202 %
23:00:00 light rain 17.690 17.690 17.690 79 1.16 m/h 69 %
13-May-2021 (Thu)
02:00:00 light rain 17.490 17.490 17.490 80 1.35 m/h 39 %
05:00:00 light rain 17.490 17.490 17.490 80 1.95 m/h 78 %
08:00:00 light rain 20.250 20.250 20.250 71 1.84 m/h 19 %
11:00:00 light rain 23.820 23.820 23.820 57 1.5 m/h 76 %
14:00:00 light rain 25.360 25.360 25.360 53 1.51 m/h 138 %

Famous Cities (60)